createdAt,value
2019-01-12T00:01:17.541Z,16.37
2019-01-12T00:03:49.047Z,16.02
2019-01-12T00:06:20.453Z,15.25
2019-01-12T00:08:51.877Z,15.32
2019-01-12T00:11:23.197Z,15.58
2019-01-12T00:13:54.638Z,17.55
2019-01-12T00:16:25.998Z,15.13
2019-01-12T00:18:57.310Z,17.40
2019-01-12T00:21:28.655Z,15.23
2019-01-12T00:24:00.089Z,23.92
2019-01-12T00:26:31.481Z,16.67
2019-01-12T00:29:02.856Z,14.60
2019-01-12T00:31:33.957Z,14.95
2019-01-12T00:34:05.447Z,13.93
2019-01-12T00:36:36.764Z,14.87
2019-01-12T00:39:09.375Z,14.53
2019-01-12T00:41:40.800Z,14.60
2019-01-12T00:44:12.056Z,14.35
2019-01-12T00:46:43.321Z,14.85
2019-01-12T00:49:14.412Z,14.80
2019-01-12T00:51:45.526Z,15.08
2019-01-12T00:54:16.639Z,15.48
2019-01-12T00:56:47.677Z,15.23
2019-01-12T00:59:18.868Z,15.30
2019-01-12T01:01:49.916Z,17.27
2019-01-12T01:04:21.068Z,17.07
2019-01-12T01:06:52.149Z,15.00
2019-01-12T01:09:23.324Z,15.08
2019-01-12T01:11:54.823Z,15.05
2019-01-12T01:14:26.055Z,15.25
2019-01-12T01:16:57.475Z,15.13
2019-01-12T01:19:28.611Z,14.60
2019-01-12T01:21:59.681Z,15.10
2019-01-12T01:24:31.273Z,14.95
2019-01-12T01:27:02.623Z,15.45
2019-01-12T01:29:33.719Z,15.30
2019-01-12T01:32:05.183Z,15.23
2019-01-12T01:34:36.261Z,14.65
2019-01-12T01:37:08.686Z,14.75
2019-01-12T01:39:39.938Z,13.70
2019-01-12T01:42:11.226Z,15.72
2019-01-12T01:44:42.620Z,15.43
2019-01-12T01:47:13.823Z,15.38
2019-01-12T01:49:45.068Z,14.53
2019-01-12T01:52:16.290Z,14.00
2019-01-12T01:54:52.788Z,14.80
2019-01-12T01:57:20.806Z,13.40
2019-01-12T01:59:51.908Z,12.85
2019-01-12T02:02:23.223Z,13.78
2019-01-12T02:04:54.492Z,12.20
2019-01-12T02:07:25.594Z,12.70
2019-01-12T02:09:58.029Z,12.35
2019-01-12T02:12:29.531Z,11.33
2019-01-12T02:15:00.846Z,11.08
2019-01-12T02:17:32.036Z,10.38
2019-01-12T02:20:03.194Z,11.12
2019-01-12T02:22:34.608Z,11.55
2019-01-12T02:25:06.715Z,11.75
2019-01-12T02:27:38.118Z,12.10
2019-01-12T02:30:13.944Z,12.37
2019-01-12T02:32:45.008Z,12.85
2019-01-12T02:35:16.407Z,14.20
2019-01-12T02:37:47.845Z,14.53
2019-01-12T02:40:19.202Z,13.98
2019-01-12T02:42:50.809Z,14.47
2019-01-12T02:45:22.322Z,14.20
2019-01-12T02:47:54.798Z,13.28
2019-01-12T02:50:26.141Z,14.03
2019-01-12T02:52:57.433Z,13.45
2019-01-12T02:55:28.677Z,12.10
2019-01-12T02:58:00.065Z,13.22
2019-01-12T03:00:31.434Z,13.65
2019-01-12T03:03:02.765Z,11.68
2019-01-12T03:05:33.979Z,12.40
2019-01-12T03:08:05.845Z,13.48
2019-01-12T03:10:37.193Z,12.25
2019-01-12T03:13:08.466Z,13.90
2019-01-12T03:15:39.773Z,11.97
2019-01-12T03:18:11.176Z,13.28
2019-01-12T03:20:42.626Z,14.10
2019-01-12T03:23:13.949Z,13.60
2019-01-12T03:25:45.104Z,13.75
2019-01-12T03:28:16.413Z,13.55
2019-01-12T03:30:47.718Z,13.58
2019-01-12T03:33:19.115Z,13.15
2019-01-12T03:35:50.260Z,12.23
2019-01-12T03:38:21.643Z,13.50
2019-01-12T03:40:53.090Z,12.40
2019-01-12T03:43:24.208Z,13.88
2019-01-12T03:45:55.752Z,13.43
2019-01-12T03:48:26.819Z,12.47
2019-01-12T03:50:58.331Z,12.28
2019-01-12T03:53:29.643Z,11.73
2019-01-12T03:56:00.929Z,11.90
2019-01-12T03:58:32.102Z,11.83
2019-01-12T04:01:03.479Z,9.80
2019-01-12T04:03:34.979Z,10.93
2019-01-12T04:06:06.342Z,11.05
2019-01-12T04:08:37.767Z,12.28
2019-01-12T04:11:08.893Z,11.50
2019-01-12T04:13:40.207Z,9.23
2019-01-12T04:16:11.684Z,11.25
2019-01-12T04:18:42.949Z,11.30
2019-01-12T04:21:14.279Z,11.70
2019-01-12T04:23:45.686Z,11.30
2019-01-12T04:26:16.851Z,12.55
2019-01-12T04:28:47.971Z,11.60
2019-01-12T04:31:19.263Z,11.53
2019-01-12T04:33:50.536Z,10.18
2019-01-12T04:36:21.830Z,11.18
2019-01-12T04:38:53.983Z,10.43
2019-01-12T04:41:25.087Z,11.78
2019-01-12T04:43:56.389Z,11.53
2019-01-12T04:46:27.915Z,11.53
2019-01-12T04:48:59.182Z,11.75
2019-01-12T04:51:30.605Z,10.32
2019-01-12T04:54:01.770Z,10.70
2019-01-12T04:56:33.101Z,10.82
2019-01-12T04:59:04.399Z,11.55
2019-01-12T05:01:35.666Z,11.50
2019-01-12T05:04:06.938Z,11.00
2019-01-12T05:06:38.321Z,11.05
2019-01-12T05:09:10.056Z,11.35
2019-01-12T05:11:41.337Z,12.45
2019-01-12T05:14:12.707Z,11.08
2019-01-12T05:16:44.147Z,11.15
2019-01-12T05:19:15.219Z,12.47
2019-01-12T05:21:46.323Z,9.63
2019-01-12T05:24:17.443Z,10.65
2019-01-12T05:26:48.593Z,12.30
2019-01-12T05:29:19.672Z,10.90
2019-01-12T05:31:50.888Z,11.18
2019-01-12T05:34:22.069Z,11.28
2019-01-12T05:36:53.403Z,11.28
2019-01-12T05:39:24.502Z,12.28
2019-01-12T05:41:55.927Z,11.93
2019-01-12T05:44:26.988Z,10.93
2019-01-12T05:46:58.580Z,10.68
2019-01-12T05:49:29.603Z,10.08
2019-01-12T05:52:01.049Z,9.88
2019-01-12T05:54:32.453Z,9.30
2019-01-12T05:57:03.862Z,12.05
2019-01-12T05:59:35.142Z,10.93
2019-01-12T06:02:06.616Z,10.38
2019-01-12T06:04:37.992Z,10.00
2019-01-12T06:07:09.538Z,10.38
2019-01-12T06:09:40.614Z,10.63
2019-01-12T06:12:12.191Z,10.48
2019-01-12T06:14:43.658Z,10.55
2019-01-12T06:17:15.098Z,10.82
2019-01-12T06:19:46.366Z,10.43
2019-01-12T06:22:17.782Z,9.90
2019-01-12T06:24:49.102Z,9.55
2019-01-12T06:27:20.435Z,10.98
2019-01-12T06:29:51.659Z,13.38
2019-01-12T06:32:23.100Z,9.43
2019-01-12T06:34:54.427Z,10.03
2019-01-12T06:37:25.895Z,8.90
2019-01-12T06:39:57.237Z,8.95
2019-01-12T06:42:29.033Z,9.45
2019-01-12T06:45:00.551Z,9.63
2019-01-12T06:47:32.830Z,9.70
2019-01-12T06:50:04.794Z,10.43
2019-01-12T06:52:36.035Z,10.03
2019-01-12T06:55:08.543Z,11.05
2019-01-12T06:57:39.944Z,11.12
2019-01-12T07:00:14.326Z,12.33
2019-01-12T07:02:45.706Z,11.35
2019-01-12T07:05:17.265Z,12.47
2019-01-12T07:07:48.551Z,10.43
2019-01-12T07:10:20.014Z,10.75
2019-01-12T07:12:51.427Z,10.03
2019-01-12T07:15:22.640Z,10.20
2019-01-12T07:17:54.277Z,10.48
2019-01-12T07:20:25.618Z,9.90
2019-01-12T07:22:57.981Z,10.58
2019-01-12T07:25:29.586Z,14.50
2019-01-12T07:28:01.091Z,12.88
2019-01-12T07:30:32.596Z,12.73
2019-01-12T07:33:04.242Z,12.35
2019-01-12T07:35:35.637Z,12.43
2019-01-12T07:38:07.177Z,12.70
2019-01-12T07:40:38.461Z,13.20
2019-01-12T07:43:09.724Z,11.63
2019-01-12T07:45:41.220Z,11.33
2019-01-12T07:48:12.390Z,11.15
2019-01-12T07:50:43.582Z,10.68
2019-01-12T07:53:14.883Z,12.15
2019-01-12T07:55:46.279Z,13.32
2019-01-12T07:58:17.419Z,13.10
2019-01-12T08:00:48.725Z,12.30
2019-01-12T08:03:20.117Z,10.88
2019-01-12T08:05:51.587Z,12.43
2019-01-12T08:08:23.001Z,10.58
2019-01-12T08:10:54.350Z,11.60
2019-01-12T08:13:26.006Z,15.53
2019-01-12T08:15:57.421Z,12.75
2019-01-12T08:18:28.567Z,7.75
2019-01-12T08:20:59.868Z,7.90
2019-01-12T08:23:31.153Z,8.23
2019-01-12T08:26:02.666Z,9.68
2019-01-12T08:28:33.948Z,10.72
2019-01-12T08:31:05.169Z,9.10
2019-01-12T08:33:36.750Z,8.93
2019-01-12T08:36:08.185Z,9.33
2019-01-12T08:38:39.722Z,8.93
2019-01-12T08:41:11.090Z,9.33
2019-01-12T08:43:42.542Z,9.63
2019-01-12T08:46:13.968Z,9.53
2019-01-12T08:48:45.608Z,8.40
2019-01-12T08:51:17.068Z,9.03
2019-01-12T08:53:48.574Z,8.93
2019-01-12T08:56:19.899Z,8.68
2019-01-12T08:58:51.294Z,10.60
2019-01-12T09:01:23.037Z,8.70
2019-01-12T09:03:54.166Z,8.85
2019-01-12T09:06:25.338Z,7.20
2019-01-12T09:08:56.773Z,7.10
2019-01-12T09:11:27.892Z,7.50
2019-01-12T09:13:59.223Z,6.10
2019-01-12T09:16:30.538Z,5.87
2019-01-12T09:19:01.818Z,7.12
2019-01-12T09:21:33.290Z,6.45
2019-01-12T09:24:04.892Z,6.35
2019-01-12T09:26:36.224Z,6.60
2019-01-12T09:29:07.554Z,6.00
2019-01-12T09:31:38.956Z,6.87
2019-01-12T09:34:10.179Z,6.85
2019-01-12T09:36:41.510Z,7.95
2019-01-12T09:39:12.977Z,6.70
2019-01-12T09:41:44.221Z,7.33
2019-01-12T09:44:15.318Z,8.05
2019-01-12T09:46:46.611Z,8.23
2019-01-12T09:49:17.802Z,8.20
2019-01-12T09:51:49.296Z,8.80
2019-01-12T09:54:20.694Z,9.13
2019-01-12T09:56:52.020Z,10.03
2019-01-12T09:59:23.229Z,9.70
2019-01-12T10:01:54.356Z,11.10
2019-01-12T10:04:25.786Z,8.50
2019-01-12T10:06:57.204Z,9.13
2019-01-12T10:09:28.611Z,8.55
2019-01-12T10:11:59.828Z,6.92
2019-01-12T10:14:31.217Z,6.87
2019-01-12T10:17:02.417Z,7.67
2019-01-12T10:19:33.644Z,6.97
2019-01-12T10:22:05.314Z,6.72
2019-01-12T10:24:36.460Z,6.37
2019-01-12T10:27:07.920Z,6.35
2019-01-12T10:29:39.273Z,6.65
2019-01-12T10:32:10.474Z,6.47
2019-01-12T10:34:41.742Z,6.50
2019-01-12T10:37:12.843Z,8.55
2019-01-12T10:39:44.502Z,9.90
2019-01-12T10:42:15.521Z,8.28
2019-01-12T10:44:47.067Z,8.60
2019-01-12T10:47:18.485Z,7.55
2019-01-12T10:49:49.744Z,8.18
2019-01-12T10:52:20.969Z,6.90
2019-01-12T10:54:52.538Z,7.17
2019-01-12T10:57:24.660Z,6.87
2019-01-12T10:59:56.005Z,7.47
2019-01-12T11:02:27.262Z,6.87
2019-01-12T11:04:58.784Z,6.97
2019-01-12T11:07:29.843Z,6.78
2019-01-12T11:10:04.348Z,7.50
2019-01-12T11:12:34.205Z,7.58
2019-01-12T11:15:06.343Z,7.50
2019-01-12T11:17:37.481Z,7.60
2019-01-12T11:20:09.257Z,6.75
2019-01-12T11:22:41.124Z,7.30
2019-01-12T11:25:13.442Z,7.80
2019-01-12T11:27:45.018Z,8.63
2019-01-12T11:30:18.121Z,13.25
2019-01-12T11:32:49.788Z,7.37
2019-01-12T11:35:21.227Z,6.87
2019-01-12T11:37:52.714Z,7.40
2019-01-12T11:40:24.126Z,6.55
2019-01-12T11:42:55.493Z,8.10
2019-01-12T11:45:27.993Z,7.58
2019-01-12T11:47:59.359Z,6.72
2019-01-12T11:50:30.955Z,7.40
2019-01-12T11:53:02.303Z,6.95
2019-01-12T11:55:33.950Z,7.78
2019-01-12T11:58:05.644Z,7.70
2019-01-12T12:00:36.996Z,7.05
2019-01-12T12:03:08.555Z,7.70
2019-01-12T12:05:40.069Z,7.92
2019-01-12T12:08:11.450Z,7.37
2019-01-12T12:10:42.891Z,6.30
2019-01-12T12:13:14.324Z,6.95
2019-01-12T12:15:45.739Z,6.62
2019-01-12T12:18:17.074Z,6.33
2019-01-12T12:20:48.479Z,6.28
2019-01-12T12:23:19.929Z,6.72
2019-01-12T12:25:51.389Z,6.70
2019-01-12T12:28:22.612Z,6.95
2019-01-12T12:30:53.723Z,7.03
2019-01-12T12:33:25.053Z,7.60
2019-01-12T12:35:56.538Z,6.87
2019-01-12T12:38:27.931Z,6.33
2019-01-12T12:40:59.341Z,6.40
2019-01-12T12:43:30.683Z,17.52
2019-01-12T12:46:01.858Z,6.15
2019-01-12T12:48:33.533Z,7.65
2019-01-12T12:51:05.166Z,6.65
2019-01-12T12:53:36.505Z,8.23
2019-01-12T12:56:08.116Z,6.10
2019-01-12T12:58:39.583Z,5.72
2019-01-12T13:01:11.038Z,5.37
2019-01-12T13:03:42.540Z,4.97
2019-01-12T13:06:14.204Z,5.20
2019-01-12T13:08:48.569Z,5.20
2019-01-12T13:11:18.461Z,5.20
2019-01-12T13:13:49.893Z,5.55
2019-01-12T13:16:21.024Z,5.30
2019-01-12T13:18:52.666Z,4.90
2019-01-12T13:21:24.149Z,4.58
2019-01-12T13:23:55.522Z,5.55
2019-01-12T13:26:26.907Z,4.78
2019-01-12T13:28:58.476Z,5.15
2019-01-12T13:31:29.972Z,5.28
2019-01-12T13:34:01.227Z,4.70
2019-01-12T13:36:32.421Z,5.55
2019-01-12T13:39:03.974Z,5.70
2019-01-12T13:41:36.258Z,5.60
2019-01-12T13:44:07.457Z,5.62
2019-01-12T13:46:38.802Z,5.85
2019-01-12T13:49:10.261Z,6.03
2019-01-12T13:51:41.745Z,5.90
2019-01-12T13:54:13.204Z,5.55
2019-01-12T13:56:44.433Z,5.75
2019-01-12T13:59:15.728Z,6.10
2019-01-12T14:01:46.989Z,6.10
2019-01-12T14:04:18.130Z,6.80
2019-01-12T14:06:49.444Z,7.28
2019-01-12T14:09:22.307Z,6.75
2019-01-12T14:11:53.784Z,7.45
2019-01-12T14:14:24.939Z,7.97
2019-01-12T14:16:56.397Z,7.20
2019-01-12T14:19:27.775Z,6.55
2019-01-12T14:21:58.890Z,7.30
2019-01-12T14:24:30.274Z,6.55
2019-01-12T14:27:01.554Z,6.65
2019-01-12T14:29:32.808Z,7.35
2019-01-12T14:32:04.056Z,7.15
2019-01-12T14:34:35.142Z,7.28
2019-01-12T14:37:06.770Z,7.33
2019-01-12T14:39:37.909Z,6.80
2019-01-12T14:42:09.032Z,5.85
2019-01-12T14:44:40.186Z,7.25
2019-01-12T14:47:11.502Z,7.58
2019-01-12T14:49:42.559Z,8.38
2019-01-12T14:52:14.061Z,10.85
2019-01-12T14:54:45.431Z,12.13
2019-01-12T14:57:16.836Z,11.20
2019-01-12T14:59:47.915Z,11.53
2019-01-12T15:02:19.111Z,11.60
2019-01-12T15:04:50.557Z,11.60
2019-01-12T15:07:21.940Z,10.18
2019-01-12T15:09:53.014Z,8.68
2019-01-12T15:12:24.147Z,8.63
2019-01-12T15:14:55.625Z,6.92
2019-01-12T15:17:26.873Z,8.15
2019-01-12T15:19:58.263Z,6.80
2019-01-12T15:22:29.398Z,8.35
2019-01-12T15:25:00.787Z,7.25
2019-01-12T15:27:32.281Z,7.78
2019-01-12T15:30:04.246Z,7.05
2019-01-12T15:32:35.640Z,7.22
2019-01-12T15:35:06.963Z,6.87
2019-01-12T15:37:38.399Z,6.72
2019-01-12T15:40:11.407Z,9.68
2019-01-12T15:42:42.909Z,8.50
2019-01-12T15:45:17.306Z,8.23
2019-01-12T15:47:48.524Z,7.90
2019-01-12T15:50:21.460Z,6.83
2019-01-12T15:52:52.774Z,7.40
2019-01-12T15:55:24.515Z,6.30
2019-01-12T15:57:55.971Z,6.72
2019-01-12T16:00:28.782Z,6.25
2019-01-12T16:03:00.166Z,6.40
2019-01-12T16:05:31.849Z,6.90
2019-01-12T16:08:03.192Z,7.85
2019-01-12T16:10:34.346Z,7.15
2019-01-12T16:13:05.946Z,6.45
2019-01-12T16:15:37.206Z,6.70
2019-01-12T16:18:08.494Z,6.58
2019-01-12T16:20:43.206Z,6.78
2019-01-12T16:23:15.017Z,5.95
2019-01-12T16:25:46.354Z,6.10
2019-01-12T16:28:23.276Z,6.62
2019-01-12T16:30:50.845Z,6.72
2019-01-12T16:33:22.066Z,7.10
2019-01-12T16:35:53.422Z,6.67
2019-01-12T16:38:24.983Z,6.90
2019-01-12T16:40:56.145Z,8.03
2019-01-12T16:43:27.600Z,7.85
2019-01-12T16:45:59.189Z,8.20
2019-01-12T16:48:30.633Z,9.00
2019-01-12T16:51:02.081Z,8.20
2019-01-12T16:53:33.390Z,8.58
2019-01-12T16:56:04.537Z,8.28
2019-01-12T16:58:35.983Z,9.83
2019-01-12T17:01:07.384Z,8.48
2019-01-12T17:03:38.530Z,9.05
2019-01-12T17:06:10.022Z,8.65
2019-01-12T17:08:41.345Z,7.90
2019-01-12T17:11:12.790Z,8.68
2019-01-12T17:13:44.385Z,8.05
2019-01-12T17:16:15.988Z,7.53
2019-01-12T17:18:47.384Z,10.23
2019-01-12T17:21:18.634Z,8.38
2019-01-12T17:23:49.751Z,12.35
2019-01-12T17:26:21.174Z,9.85
2019-01-12T17:28:52.311Z,10.38
2019-01-12T17:31:23.666Z,10.20
2019-01-12T17:33:55.130Z,10.35
2019-01-12T17:36:26.364Z,9.13
2019-01-12T17:38:57.811Z,11.25
2019-01-12T17:41:29.169Z,9.78
2019-01-12T17:44:00.647Z,9.85
2019-01-12T17:46:32.054Z,10.35
2019-01-12T17:49:03.493Z,9.40
2019-01-12T17:51:34.605Z,11.48
2019-01-12T17:54:06.309Z,10.08
2019-01-12T17:56:37.410Z,8.63
2019-01-12T17:59:08.793Z,7.62
2019-01-12T18:01:40.355Z,9.58
2019-01-12T18:04:11.743Z,7.47
2019-01-12T18:06:43.148Z,8.78
2019-01-12T18:09:14.497Z,7.10
2019-01-12T18:11:45.956Z,8.13
2019-01-12T18:14:18.052Z,8.50
2019-01-12T18:16:49.120Z,8.10
2019-01-12T18:19:21.316Z,9.33
2019-01-12T18:21:52.430Z,8.55
2019-01-12T18:24:23.771Z,8.35
2019-01-12T18:26:54.933Z,10.30
2019-01-12T18:29:26.351Z,11.35
2019-01-12T18:31:57.436Z,12.28
2019-01-12T18:34:28.906Z,8.48
2019-01-12T18:37:00.005Z,9.60
2019-01-12T18:39:31.459Z,7.78
2019-01-12T18:42:03.149Z,7.87
2019-01-12T18:44:34.435Z,7.20
2019-01-12T18:47:05.711Z,7.30
2019-01-12T18:49:36.954Z,6.78
2019-01-12T18:52:08.225Z,8.45
2019-01-12T18:54:39.737Z,7.17
2019-01-12T18:57:11.048Z,7.90
2019-01-12T18:59:42.300Z,6.33
2019-01-12T19:02:13.678Z,7.10
2019-01-12T19:04:45.125Z,6.78
2019-01-12T19:07:16.442Z,6.92
2019-01-12T19:09:47.810Z,7.08
2019-01-12T19:12:19.006Z,8.00
2019-01-12T19:14:50.548Z,7.42
2019-01-12T19:17:21.612Z,9.95
2019-01-12T19:19:52.754Z,8.70
2019-01-12T19:22:24.231Z,8.60
2019-01-12T19:24:55.707Z,9.40
2019-01-12T19:27:26.941Z,9.20
2019-01-12T19:29:58.179Z,10.35
2019-01-12T19:32:29.252Z,9.48
2019-01-12T19:35:00.385Z,7.65
2019-01-12T19:37:31.529Z,8.75
2019-01-12T19:40:02.740Z,9.43
2019-01-12T19:42:34.071Z,9.63
2019-01-12T19:45:06.370Z,8.53
2019-01-12T19:47:37.901Z,9.93
2019-01-12T19:50:11.309Z,8.65
2019-01-12T19:52:42.556Z,8.20
2019-01-12T19:55:13.958Z,7.28
2019-01-12T19:57:45.027Z,7.45
2019-01-12T20:00:21.730Z,8.00
2019-01-12T20:02:53.049Z,8.85
2019-01-12T20:05:24.457Z,9.10
2019-01-12T20:07:56.553Z,8.05
2019-01-12T20:10:27.879Z,7.50
2019-01-12T20:12:59.285Z,7.67
2019-01-12T20:15:30.679Z,8.35
2019-01-12T20:18:01.734Z,9.50
2019-01-12T20:20:32.942Z,8.35
2019-01-12T20:23:04.376Z,8.18
2019-01-12T20:25:35.938Z,7.80
2019-01-12T20:28:10.624Z,9.65
2019-01-12T20:31:12.942Z,8.58
2019-01-12T20:34:29.235Z,7.55
2019-01-12T20:37:49.207Z,7.50
2019-01-12T20:41:00.681Z,8.50
2019-01-12T20:44:09.604Z,8.25
2019-01-12T20:47:22.029Z,6.67
2019-01-12T20:50:27.480Z,6.80
2019-01-12T20:53:24.715Z,7.60
2019-01-12T20:56:16.252Z,7.12
2019-01-12T20:59:09.817Z,7.40
2019-01-12T21:02:05.671Z,7.20
2019-01-12T21:05:22.459Z,8.25
2019-01-12T21:08:34.529Z,7.72
2019-01-12T21:11:32.453Z,8.10
2019-01-12T21:14:33.243Z,8.08
2019-01-12T21:17:12.379Z,7.62
2019-01-12T21:19:47.986Z,7.70
2019-01-12T21:22:16.313Z,9.23
2019-01-12T21:24:47.741Z,9.70
2019-01-12T21:27:19.245Z,8.68
2019-01-12T21:29:50.887Z,9.00
2019-01-12T21:32:22.248Z,8.65
2019-01-12T21:34:53.524Z,10.20
2019-01-12T21:37:24.923Z,8.45
2019-01-12T21:39:56.440Z,8.08
2019-01-12T21:42:27.856Z,7.67
2019-01-12T21:44:59.064Z,8.30
2019-01-12T21:47:30.375Z,8.63
2019-01-12T21:50:01.817Z,16.25
2019-01-12T21:52:33.007Z,8.45
2019-01-12T21:55:04.771Z,7.92
2019-01-12T21:57:37.272Z,7.47
2019-01-12T22:00:11.851Z,10.38
2019-01-12T22:02:43.126Z,11.48
2019-01-12T22:05:14.758Z,10.78
2019-01-12T22:07:46.080Z,13.48
2019-01-12T22:10:19.287Z,10.78
2019-01-12T22:12:50.621Z,9.78
2019-01-12T22:15:22.021Z,10.28
2019-01-12T22:17:53.310Z,9.00
2019-01-12T22:20:24.800Z,11.90
2019-01-12T22:22:56.209Z,8.48
2019-01-12T22:25:27.598Z,8.13
2019-01-12T22:27:59.110Z,10.05
2019-01-12T22:30:30.385Z,11.05
2019-01-12T22:33:01.811Z,12.07
2019-01-12T22:35:33.219Z,7.92
2019-01-12T22:38:04.609Z,7.78
2019-01-12T22:40:35.900Z,7.92
2019-01-12T22:43:07.358Z,7.37
2019-01-12T22:45:38.521Z,8.63
2019-01-12T22:48:10.014Z,10.18
2019-01-12T22:50:41.163Z,8.38
2019-01-12T22:53:12.406Z,6.70
2019-01-12T22:55:43.860Z,7.37
2019-01-12T22:58:15.231Z,6.92
2019-01-12T23:01:06.943Z,6.50
2019-01-12T23:03:38.570Z,6.60
2019-01-12T23:06:09.825Z,5.62
2019-01-12T23:08:41.155Z,5.90
2019-01-12T23:11:12.649Z,6.47
2019-01-12T23:13:44.077Z,6.83
2019-01-12T23:16:15.559Z,6.62
2019-01-12T23:18:47.066Z,7.80
2019-01-12T23:21:18.261Z,6.72
2019-01-12T23:23:49.558Z,8.33
2019-01-12T23:26:20.745Z,8.58
2019-01-12T23:28:52.226Z,8.10
2019-01-12T23:31:23.541Z,8.48
2019-01-12T23:33:54.901Z,9.75
2019-01-12T23:36:26.410Z,9.33
2019-01-12T23:38:57.879Z,8.98
2019-01-12T23:41:29.073Z,9.13
2019-01-12T23:44:00.431Z,8.13
2019-01-12T23:46:31.844Z,8.83
2019-01-12T23:49:03.306Z,8.98
2019-01-12T23:51:34.697Z,8.45
2019-01-12T23:54:06.020Z,8.80
2019-01-12T23:56:37.053Z,9.08
2019-01-12T23:59:08.415Z,9.33
